EDMO

Oberpfaffenhofen Airport

Germany
METAR EDMO 171720Z 20007KT 9999 FEW026 BKN070CB 21/12 Q1016
Observed Flight Rules
Jul-17 @ 17:20 UTC (6 hours ago) Visual Flight Rules
Wind Visibility Clouds
200° at 7 knots 10,000+ meters
  • Few at 2,600' AGL
  • Broken at 7,000' AGL
Temperatures Readings
Current 21°C / 70°F
Dewpoint 12°C / 54°F
Humidity 57%
Altimeter 30" Hg
Pressure 1016 hPa
Elevation 600
METAR EDMO 171720Z 20007KT 9999 FEW026 BKN070CB 21/12 Q1016
Observed Flight Rules
Jul-17 @ 17:20 UTC
(6 hours ago)
VFR
Wind Visibility
200° at 7 knots 10,000+ meters
Clouds
  • Few at 2,600' AGL
  • Broken at 7,000' AGL
Temperature Dewpoint
21°C / 70°F 12°C / 54°F
Humidity Altimeter Pressure
57% 30" Hg 1016 hPa